Arnegard, North Dakota
Current Conditions -  °F | °C
As of 7:35 PM on Friday 19 Dec 2014 (Local Time) from KS25 Reporting Station
Clear Clear  
Wind Chill: 13°   Ceiling: Unl
Heat Index: 19°   Visibility: 10mi
Dew Point: 19°   Wind: 5mph
Humidity: 100%   Direction: 350°N
Pressure: 29.89"   Gusts: NA
Location:  47.81°N, 103.44°W
Report Text: KS25 200135Z AUTO 35004KT 10SM CLR M07/M07 A2989 RMK AO2
Loading
Personal Weather Stations






























Interactive Weather Map New forecast layout! Learn more

10-Day Weather Forecast

Advertisements
Track Severe Weather on mobile